Floydada, TX (79235)

10:16 PM CST on December 07, 2016 (GMT -0600)
WT_Meso | | Change Station

Elev 3179 ft 34.00 °N, 101.33 °W | Updated 31 minutes ago

Overcast
Overcast
30 °F
Feels Like 19 °F
N
16
Wind Variable Wind from NNE
Gusts 22.0 mph

Today
High -- | Low -- °F
--% Chance of Precip.
Yesterday
High -- | Low -- °F
Precip. -- in
Pressure 30.35 in
Visibility 10.0 miles
Clouds Overcast 3000 ft
Windchill 19 °F
Dew Point 18 °F
Humidity 61%
Rainfall in
Snow Depth Not available.
7:37 AM 5:36 PM
First Quarter, 59% visible
METAR KPVW 080355Z AUTO 04014G19KT 10SM OVC030 M02/M09 A3035 RMK AO2 T10171086 TSNO
Pressure 30.35 in
Visibility 10.0 miles
Clouds Overcast 3000 ft
Windchill 19 °F
Dew Point 18 °F
Humidity 61%
Rainfall in
Snow Depth Not available.
7:37 AM 5:36 PM
First Quarter, 59% visible
METAR KPVW 080355Z AUTO 04014G19KT 10SM OVC030 M02/M09 A3035 RMK AO2 T10171086 TSNO

10-Day Weather Forecast

Almanac

Astronomy

Dec. 07, 2016 Rise Set
Actual Time
Civil Twilight
Nautical Twilight
Astronomical Twilight
Moon
Length of Visible Light
Length of Day
Tomorrow will be .
, % of the Moon is Illuminated

Today's Extremes

State Highs State Lows

Community

WunderPhotos

Upload Photos

1,956,259 photos uploaded!

WunderBlog® & News

Nearby

Air Quality

  Air Quality AQ Index Pollutant
Not available.

Snow Depth

Station Depth Elevation

Earthquake Activity

City Distance Mag. Time & Date
Minimum magnitude displayed is 2.5.

Coastal Water Temperatures

Place Temperature

Stations

Nearby Weather Stations

Station Location Temp. Windchill Dew Point Humidity Wind Precip. Elev Updated Type
                   

Watches & Warnings

There are currently no watches in effect.